sensor_id;sensor_type;location;lat;lon;timestamp;temperature;humidity
36216;DHT22;22257;52.232;21.084;2022-07-29T00:01:00;16.20;99.90
36216;DHT22;22257;52.232;21.084;2022-07-29T00:03:27;16.20;99.90
36216;DHT22;22257;52.232;21.084;2022-07-29T00:05:53;16.20;99.90
36216;DHT22;22257;52.232;21.084;2022-07-29T00:08:19;16.30;99.90
36216;DHT22;22257;52.232;21.084;2022-07-29T00:10:46;16.20;99.90
36216;DHT22;22257;52.232;21.084;2022-07-29T00:13:12;16.20;99.90
36216;DHT22;22257;52.232;21.084;2022-07-29T00:15:38;16.20;99.90
36216;DHT22;22257;52.232;21.084;2022-07-29T00:18:05;16.20;99.90
36216;DHT22;22257;52.232;21.084;2022-07-29T00:20:31;16.10;99.90
36216;DHT22;22257;52.232;21.084;2022-07-29T00:22:57;16.10;99.90
36216;DHT22;22257;52.232;21.084;2022-07-29T00:25:23;16.10;99.90
36216;DHT22;22257;52.232;21.084;2022-07-29T00:27:49;16.00;99.90
36216;DHT22;22257;52.232;21.084;2022-07-29T00:30:15;16.00;99.90
36216;DHT22;22257;52.232;21.084;2022-07-29T00:32:42;16.00;99.90
36216;DHT22;22257;52.232;21.084;2022-07-29T00:35:08;16.00;99.90
36216;DHT22;22257;52.232;21.084;2022-07-29T00:37:54;16.00;99.90
36216;DHT22;22257;52.232;21.084;2022-07-29T00:40:20;15.90;99.90
36216;DHT22;22257;52.232;21.084;2022-07-29T00:42:49;15.90;99.90
36216;DHT22;22257;52.232;21.084;2022-07-29T00:45:15;15.80;99.90
36216;DHT22;22257;52.232;21.084;2022-07-29T00:47:42;15.70;99.90
36216;DHT22;22257;52.232;21.084;2022-07-29T00:50:11;15.70;99.90
36216;DHT22;22257;52.232;21.084;2022-07-29T00:52:39;15.70;99.90
36216;DHT22;22257;52.232;21.084;2022-07-29T00:55:08;15.70;99.90
36216;DHT22;22257;52.232;21.084;2022-07-29T00:57:35;15.70;99.90
36216;DHT22;22257;52.232;21.084;2022-07-29T01:00:07;15.60;99.90
36216;DHT22;22257;52.232;21.084;2022-07-29T01:02:33;15.60;99.90
36216;DHT22;22257;52.232;21.084;2022-07-29T01:05:01;15.60;99.90
36216;DHT22;22257;52.232;21.084;2022-07-29T01:07:28;15.60;99.90
36216;DHT22;22257;52.232;21.084;2022-07-29T01:09:55;15.60;99.90
36216;DHT22;22257;52.232;21.084;2022-07-29T01:12:25;15.60;99.90
36216;DHT22;22257;52.232;21.084;2022-07-29T01:14:52;15.60;99.90
36216;DHT22;22257;52.232;21.084;2022-07-29T01:23:08;15.70;99.90
36216;DHT22;22257;52.232;21.084;2022-07-29T01:25:46;15.70;99.90
36216;DHT22;22257;52.232;21.084;2022-07-29T01:31:03;15.60;99.90
36216;DHT22;22257;52.232;21.084;2022-07-29T01:33:31;15.50;99.90
36216;DHT22;22257;52.232;21.084;2022-07-29T01:39:11;15.50;99.90
36216;DHT22;22257;52.232;21.084;2022-07-29T01:41:50;15.30;99.90
36216;DHT22;22257;52.232;21.084;2022-07-29T01:44:23;15.50;99.90
36216;DHT22;22257;52.232;21.084;2022-07-29T01:46:52;15.40;99.90
36216;DHT22;22257;52.232;21.084;2022-07-29T01:49:23;15.40;99.90
36216;DHT22;22257;52.232;21.084;2022-07-29T01:51:52;15.40;99.90
36216;DHT22;22257;52.232;21.084;2022-07-29T01:54:54;15.40;99.90
36216;DHT22;22257;52.232;21.084;2022-07-29T01:57:27;15.30;99.90
36216;DHT22;22257;52.232;21.084;2022-07-29T01:59:56;15.30;99.90
36216;DHT22;22257;52.232;21.084;2022-07-29T02:02:23;15.20;99.90
36216;DHT22;22257;52.232;21.084;2022-07-29T02:04:50;15.20;99.90
36216;DHT22;22257;52.232;21.084;2022-07-29T02:07:20;15.20;99.90
36216;DHT22;22257;52.232;21.084;2022-07-29T02:09:49;15.10;99.90
36216;DHT22;22257;52.232;21.084;2022-07-29T02:12:20;15.10;99.90
36216;DHT22;22257;52.232;21.084;2022-07-29T02:14:50;15.10;99.90
36216;DHT22;22257;52.232;21.084;2022-07-29T02:17:26;15.00;99.90
36216;DHT22;22257;52.232;21.084;2022-07-29T02:19:57;15.00;99.90
36216;DHT22;22257;52.232;21.084;2022-07-29T02:22:23;15.00;99.90
36216;DHT22;22257;52.232;21.084;2022-07-29T02:24:50;14.90;99.90
36216;DHT22;22257;52.232;21.084;2022-07-29T02:27:19;14.90;99.90
36216;DHT22;22257;52.232;21.084;2022-07-29T02:29:47;14.80;99.90
36216;DHT22;22257;52.232;21.084;2022-07-29T02:32:16;14.80;99.90
36216;DHT22;22257;52.232;21.084;2022-07-29T02:34:43;14.80;99.90
36216;DHT22;22257;52.232;21.084;2022-07-29T02:37:11;14.80;99.90
36216;DHT22;22257;52.232;21.084;2022-07-29T02:39:39;14.70;99.90
36216;DHT22;22257;52.232;21.084;2022-07-29T02:42:08;14.70;99.90
36216;DHT22;22257;52.232;21.084;2022-07-29T02:44:35;14.60;99.90
36216;DHT22;22257;52.232;21.084;2022-07-29T02:47:14;14.60;99.90
36216;DHT22;22257;52.232;21.084;2022-07-29T02:52:23;14.60;99.90
36216;DHT22;22257;52.232;21.084;2022-07-29T02:54:58;14.60;99.90
36216;DHT22;22257;52.232;21.084;2022-07-29T03:00:15;14.50;99.90
36216;DHT22;22257;52.232;21.084;2022-07-29T03:02:44;14.50;99.90
36216;DHT22;22257;52.232;21.084;2022-07-29T03:05:15;14.50;99.90
36216;DHT22;22257;52.232;21.084;2022-07-29T03:07:43;14.60;99.90
36216;DHT22;22257;52.232;21.084;2022-07-29T03:10:11;14.60;99.90
36216;DHT22;22257;52.232;21.084;2022-07-29T03:12:38;14.50;99.90
36216;DHT22;22257;52.232;21.084;2022-07-29T03:15:06;14.50;99.90
36216;DHT22;22257;52.232;21.084;2022-07-29T03:17:34;14.50;99.90
36216;DHT22;22257;52.232;21.084;2022-07-29T03:20:01;14.50;99.90
36216;DHT22;22257;52.232;21.084;2022-07-29T03:22:28;14.50;99.90
36216;DHT22;22257;52.232;21.084;2022-07-29T03:24:53;14.50;99.90
36216;DHT22;22257;52.232;21.084;2022-07-29T03:27:20;14.50;99.90
36216;DHT22;22257;52.232;21.084;2022-07-29T03:29:46;14.60;99.90
36216;DHT22;22257;52.232;21.084;2022-07-29T03:32:12;14.60;99.90
36216;DHT22;22257;52.232;21.084;2022-07-29T03:34:38;14.60;99.90
36216;DHT22;22257;52.232;21.084;2022-07-29T03:37:05;14.50;99.90
36216;DHT22;22257;52.232;21.084;2022-07-29T03:39:38;14.50;99.90
36216;DHT22;22257;52.232;21.084;2022-07-29T03:42:06;14.50;99.90
36216;DHT22;22257;52.232;21.084;2022-07-29T03:44:34;14.50;99.90
36216;DHT22;22257;52.232;21.084;2022-07-29T03:47:01;14.50;99.90
36216;DHT22;22257;52.232;21.084;2022-07-29T03:49:29;14.50;99.90
36216;DHT22;22257;52.232;21.084;2022-07-29T03:51:56;14.50;99.90
36216;DHT22;22257;52.232;21.084;2022-07-29T03:54:22;14.50;99.90
36216;DHT22;22257;52.232;21.084;2022-07-29T03:56:49;14.50;99.90
36216;DHT22;22257;52.232;21.084;2022-07-29T03:59:18;14.50;99.90
36216;DHT22;22257;52.232;21.084;2022-07-29T04:01:46;14.50;99.90
36216;DHT22;22257;52.232;21.084;2022-07-29T04:04:12;14.50;99.90
36216;DHT22;22257;52.232;21.084;2022-07-29T04:06:42;14.50;99.90
36216;DHT22;22257;52.232;21.084;2022-07-29T04:09:10;14.60;99.90
36216;DHT22;22257;52.232;21.084;2022-07-29T04:11:38;14.60;99.90
36216;DHT22;22257;52.232;21.084;2022-07-29T04:14:04;14.60;99.90
36216;DHT22;22257;52.232;21.084;2022-07-29T04:16:31;14.70;99.90
36216;DHT22;22257;52.232;21.084;2022-07-29T04:18:58;14.70;99.90
36216;DHT22;22257;52.232;21.084;2022-07-29T04:21:24;14.80;99.90
36216;DHT22;22257;52.232;21.084;2022-07-29T04:23:50;14.80;99.90
36216;DHT22;22257;52.232;21.084;2022-07-29T04:26:19;14.90;99.90
36216;DHT22;22257;52.232;21.084;2022-07-29T04:28:46;14.90;99.90
36216;DHT22;22257;52.232;21.084;2022-07-29T04:31:13;14.90;99.90
36216;DHT22;22257;52.232;21.084;2022-07-29T04:33:39;15.00;99.90
36216;DHT22;22257;52.232;21.084;2022-07-29T04:36:05;15.10;99.90
36216;DHT22;22257;52.232;21.084;2022-07-29T04:38:32;15.10;99.90
36216;DHT22;22257;52.232;21.084;2022-07-29T04:40:58;15.20;99.90
36216;DHT22;22257;52.232;21.084;2022-07-29T04:43:24;15.20;99.90
36216;DHT22;22257;52.232;21.084;2022-07-29T04:45:50;15.20;99.90
36216;DHT22;22257;52.232;21.084;2022-07-29T04:48:16;15.30;99.90
36216;DHT22;22257;52.232;21.084;2022-07-29T04:50:42;15.30;99.90
36216;DHT22;22257;52.232;21.084;2022-07-29T04:53:08;15.40;99.90
36216;DHT22;22257;52.232;21.084;2022-07-29T04:55:34;15.50;99.90
36216;DHT22;22257;52.232;21.084;2022-07-29T04:58:02;15.50;99.90
36216;DHT22;22257;52.232;21.084;2022-07-29T05:00:28;15.60;99.90
36216;DHT22;22257;52.232;21.084;2022-07-29T05:02:54;15.70;99.90
36216;DHT22;22257;52.232;21.084;2022-07-29T05:05:20;15.70;99.90
36216;DHT22;22257;52.232;21.084;2022-07-29T05:07:46;15.80;99.90
36216;DHT22;22257;52.232;21.084;2022-07-29T05:10:12;15.80;99.90
36216;DHT22;22257;52.232;21.084;2022-07-29T05:12:38;15.90;99.90
36216;DHT22;22257;52.232;21.084;2022-07-29T05:15:05;15.90;99.90
36216;DHT22;22257;52.232;21.084;2022-07-29T05:17:31;16.00;99.90
36216;DHT22;22257;52.232;21.084;2022-07-29T05:19:58;16.10;99.90
36216;DHT22;22257;52.232;21.084;2022-07-29T05:22:24;16.20;99.90
36216;DHT22;22257;52.232;21.084;2022-07-29T05:24:50;16.20;99.90
36216;DHT22;22257;52.232;21.084;2022-07-29T05:27:16;16.30;99.90
36216;DHT22;22257;52.232;21.084;2022-07-29T05:29:42;16.40;99.90
36216;DHT22;22257;52.232;21.084;2022-07-29T05:32:08;16.50;99.90
36216;DHT22;22257;52.232;21.084;2022-07-29T05:34:34;16.50;99.90
36216;DHT22;22257;52.232;21.084;2022-07-29T05:37:00;16.60;99.90
36216;DHT22;22257;52.232;21.084;2022-07-29T05:39:29;16.80;99.90
36216;DHT22;22257;52.232;21.084;2022-07-29T05:41:56;16.70;99.90
36216;DHT22;22257;52.232;21.084;2022-07-29T05:44:22;16.90;99.90
36216;DHT22;22257;52.232;21.084;2022-07-29T05:46:48;16.90;99.90
36216;DHT22;22257;52.232;21.084;2022-07-29T05:49:14;17.00;99.90
36216;DHT22;22257;52.232;21.084;2022-07-29T05:51:40;17.10;99.90
36216;DHT22;22257;52.232;21.084;2022-07-29T05:54:06;17.10;99.90
36216;DHT22;22257;52.232;21.084;2022-07-29T05:56:32;17.20;99.90
36216;DHT22;22257;52.232;21.084;2022-07-29T05:58:59;17.20;99.90
36216;DHT22;22257;52.232;21.084;2022-07-29T06:01:25;17.30;99.90
36216;DHT22;22257;52.232;21.084;2022-07-29T06:03:51;17.30;99.90
36216;DHT22;22257;52.232;21.084;2022-07-29T06:06:18;17.40;99.90
36216;DHT22;22257;52.232;21.084;2022-07-29T06:08:44;17.50;99.90
36216;DHT22;22257;52.232;21.084;2022-07-29T06:11:10;17.50;99.90
36216;DHT22;22257;52.232;21.084;2022-07-29T06:13:36;17.60;99.90
36216;DHT22;22257;52.232;21.084;2022-07-29T06:16:03;17.70;99.90
36216;DHT22;22257;52.232;21.084;2022-07-29T06:18:29;17.80;99.90
36216;DHT22;22257;52.232;21.084;2022-07-29T06:20:56;17.80;99.90
36216;DHT22;22257;52.232;21.084;2022-07-29T06:23:22;18.00;99.90
36216;DHT22;22257;52.232;21.084;2022-07-29T06:25:49;18.10;99.90
36216;DHT22;22257;52.232;21.084;2022-07-29T06:28:15;18.10;99.90
36216;DHT22;22257;52.232;21.084;2022-07-29T06:30:41;18.20;99.90
36216;DHT22;22257;52.232;21.084;2022-07-29T06:33:07;18.30;99.90
36216;DHT22;22257;52.232;21.084;2022-07-29T06:35:34;18.50;99.90
36216;DHT22;22257;52.232;21.084;2022-07-29T06:38:02;18.60;99.90
36216;DHT22;22257;52.232;21.084;2022-07-29T06:40:29;18.70;99.90
36216;DHT22;22257;52.232;21.084;2022-07-29T06:43:13;18.80;99.90
36216;DHT22;22257;52.232;21.084;2022-07-29T06:45:39;18.90;99.90
36216;DHT22;22257;52.232;21.084;2022-07-29T06:48:06;19.00;99.90
36216;DHT22;22257;52.232;21.084;2022-07-29T06:50:33;19.10;99.90
36216;DHT22;22257;52.232;21.084;2022-07-29T06:52:59;19.20;99.90
36216;DHT22;22257;52.232;21.084;2022-07-29T06:55:25;19.30;99.90
36216;DHT22;22257;52.232;21.084;2022-07-29T06:57:51;19.40;99.90
36216;DHT22;22257;52.232;21.084;2022-07-29T07:00:18;19.50;99.90
36216;DHT22;22257;52.232;21.084;2022-07-29T07:02:44;19.70;99.90
36216;DHT22;22257;52.232;21.084;2022-07-29T07:05:10;19.80;99.90
36216;DHT22;22257;52.232;21.084;2022-07-29T07:07:36;19.90;99.90
36216;DHT22;22257;52.232;21.084;2022-07-29T07:10:03;19.90;99.90
36216;DHT22;22257;52.232;21.084;2022-07-29T07:12:29;19.60;99.90
36216;DHT22;22257;52.232;21.084;2022-07-29T07:14:55;19.70;99.90
36216;DHT22;22257;52.232;21.084;2022-07-29T07:17:21;19.80;99.90
36216;DHT22;22257;52.232;21.084;2022-07-29T07:19:47;19.90;99.90
36216;DHT22;22257;52.232;21.084;2022-07-29T07:22:13;20.10;99.90
36216;DHT22;22257;52.232;21.084;2022-07-29T07:24:39;20.30;99.90
36216;DHT22;22257;52.232;21.084;2022-07-29T07:27:06;20.40;99.90
36216;DHT22;22257;52.232;21.084;2022-07-29T07:29:32;20.40;99.90
36216;DHT22;22257;52.232;21.084;2022-07-29T07:31:59;20.50;99.90
36216;DHT22;22257;52.232;21.084;2022-07-29T07:34:25;20.60;99.90
36216;DHT22;22257;52.232;21.084;2022-07-29T07:36:51;20.70;99.90
36216;DHT22;22257;52.232;21.084;2022-07-29T07:39:17;20.80;99.90
36216;DHT22;22257;52.232;21.084;2022-07-29T07:41:43;20.90;99.90
36216;DHT22;22257;52.232;21.084;2022-07-29T07:44:09;20.90;99.90
36216;DHT22;22257;52.232;21.084;2022-07-29T07:46:35;21.00;99.90
36216;DHT22;22257;52.232;21.084;2022-07-29T07:49:01;21.10;99.90
36216;DHT22;22257;52.232;21.084;2022-07-29T07:51:27;21.10;99.90
36216;DHT22;22257;52.232;21.084;2022-07-29T07:53:53;21.20;99.90
36216;DHT22;22257;52.232;21.084;2022-07-29T07:56:19;21.40;99.90
36216;DHT22;22257;52.232;21.084;2022-07-29T07:58:45;21.50;99.90
36216;DHT22;22257;52.232;21.084;2022-07-29T08:01:11;21.60;99.90
36216;DHT22;22257;52.232;21.084;2022-07-29T08:03:38;21.70;99.90
36216;DHT22;22257;52.232;21.084;2022-07-29T08:06:04;21.80;99.90
36216;DHT22;22257;52.232;21.084;2022-07-29T08:08:31;22.00;99.90
36216;DHT22;22257;52.232;21.084;2022-07-29T08:10:57;22.10;99.90
36216;DHT22;22257;52.232;21.084;2022-07-29T08:13:25;22.30;99.90
36216;DHT22;22257;52.232;21.084;2022-07-29T08:15:54;22.40;99.90
36216;DHT22;22257;52.232;21.084;2022-07-29T08:18:29;22.30;99.90
36216;DHT22;22257;52.232;21.084;2022-07-29T08:20:56;22.40;99.90
36216;DHT22;22257;52.232;21.084;2022-07-29T08:23:22;22.40;99.90
36216;DHT22;22257;52.232;21.084;2022-07-29T08:25:49;22.50;99.90
36216;DHT22;22257;52.232;21.084;2022-07-29T08:28:16;22.50;99.90
36216;DHT22;22257;52.232;21.084;2022-07-29T08:30:43;22.50;99.90
36216;DHT22;22257;52.232;21.084;2022-07-29T08:33:09;22.60;99.90
36216;DHT22;22257;52.232;21.084;2022-07-29T08:35:35;22.60;99.90
36216;DHT22;22257;52.232;21.084;2022-07-29T08:38:01;22.20;99.90
36216;DHT22;22257;52.232;21.084;2022-07-29T08:40:29;22.20;99.90
36216;DHT22;22257;52.232;21.084;2022-07-29T08:42:55;22.40;99.90
36216;DHT22;22257;52.232;21.084;2022-07-29T08:45:23;22.30;99.90
36216;DHT22;22257;52.232;21.084;2022-07-29T08:47:49;22.20;99.90
36216;DHT22;22257;52.232;21.084;2022-07-29T08:50:15;22.20;99.90
36216;DHT22;22257;52.232;21.084;2022-07-29T08:52:41;22.10;99.90
36216;DHT22;22257;52.232;21.084;2022-07-29T08:55:09;22.40;99.90
36216;DHT22;22257;52.232;21.084;2022-07-29T08:57:36;22.80;99.90
36216;DHT22;22257;52.232;21.084;2022-07-29T09:00:06;23.20;99.90
36216;DHT22;22257;52.232;21.084;2022-07-29T09:02:41;23.30;99.90
36216;DHT22;22257;52.232;21.084;2022-07-29T09:05:09;23.20;99.90
36216;DHT22;22257;52.232;21.084;2022-07-29T09:07:35;23.60;99.90
36216;DHT22;22257;52.232;21.084;2022-07-29T09:10:04;23.70;99.90
36216;DHT22;22257;52.232;21.084;2022-07-29T09:12:30;23.80;99.90
36216;DHT22;22257;52.232;21.084;2022-07-29T09:14:57;24.00;99.90
36216;DHT22;22257;52.232;21.084;2022-07-29T09:17:46;23.60;99.90
36216;DHT22;22257;52.232;21.084;2022-07-29T09:20:22;23.40;99.90
36216;DHT22;22257;52.232;21.084;2022-07-29T09:22:46;23.30;99.90
36216;DHT22;22257;52.232;21.084;2022-07-29T09:25:35;23.60;99.90
36216;DHT22;22257;52.232;21.084;2022-07-29T09:28:10;23.60;99.90
36216;DHT22;22257;52.232;21.084;2022-07-29T09:30:54;23.40;99.90
36216;DHT22;22257;52.232;21.084;2022-07-29T09:33:22;23.30;99.90
36216;DHT22;22257;52.232;21.084;2022-07-29T09:38:34;23.50;99.90
36216;DHT22;22257;52.232;21.084;2022-07-29T09:41:03;23.60;99.90
36216;DHT22;22257;52.232;21.084;2022-07-29T09:43:30;23.70;99.90
36216;DHT22;22257;52.232;21.084;2022-07-29T09:46:15;23.70;99.90
36216;DHT22;22257;52.232;21.084;2022-07-29T09:48:38;23.80;99.90
36216;DHT22;22257;52.232;21.084;2022-07-29T09:51:05;24.20;99.90
36216;DHT22;22257;52.232;21.084;2022-07-29T09:53:34;24.30;99.90
36216;DHT22;22257;52.232;21.084;2022-07-29T09:56:02;24.50;99.90
36216;DHT22;22257;52.232;21.084;2022-07-29T09:58:28;24.60;99.90
36216;DHT22;22257;52.232;21.084;2022-07-29T10:00:55;24.30;99.90
36216;DHT22;22257;52.232;21.084;2022-07-29T10:03:22;24.10;99.90
36216;DHT22;22257;52.232;21.084;2022-07-29T10:06:09;24.10;99.90
36216;DHT22;22257;52.232;21.084;2022-07-29T10:08:35;24.30;99.90
36216;DHT22;22257;52.232;21.084;2022-07-29T10:11:17;24.50;99.90
36216;DHT22;22257;52.232;21.084;2022-07-29T10:13:41;24.50;99.90
36216;DHT22;22257;52.232;21.084;2022-07-29T10:16:09;24.40;99.90
36216;DHT22;22257;52.232;21.084;2022-07-29T10:18:37;24.10;99.90
36216;DHT22;22257;52.232;21.084;2022-07-29T10:21:04;24.10;99.90
36216;DHT22;22257;52.232;21.084;2022-07-29T10:23:30;24.10;99.90
36216;DHT22;22257;52.232;21.084;2022-07-29T10:25:57;24.20;99.90
36216;DHT22;22257;52.232;21.084;2022-07-29T10:28:23;24.00;99.90
36216;DHT22;22257;52.232;21.084;2022-07-29T10:30:52;24.00;99.90
36216;DHT22;22257;52.232;21.084;2022-07-29T10:44:23;24.40;98.50
36216;DHT22;22257;52.232;21.084;2022-07-29T10:46:51;24.30;98.40
36216;DHT22;22257;52.232;21.084;2022-07-29T10:49:19;24.50;98.90
36216;DHT22;22257;52.232;21.084;2022-07-29T10:51:55;24.70;98.50
36216;DHT22;22257;52.232;21.084;2022-07-29T10:57:19;24.60;97.10
36216;DHT22;22257;52.232;21.084;2022-07-29T11:00:24;25.10;97.10
36216;DHT22;22257;52.232;21.084;2022-07-29T11:05:05;24.90;95.40
36216;DHT22;22257;52.232;21.084;2022-07-29T11:07:33;24.60;95.20
36216;DHT22;22257;52.232;21.084;2022-07-29T11:12:47;24.50;94.90
36216;DHT22;22257;52.232;21.084;2022-07-29T11:15:15;24.60;94.60
36216;DHT22;22257;52.232;21.084;2022-07-29T11:20:33;24.90;95.20
36216;DHT22;22257;52.232;21.084;2022-07-29T11:23:01;25.00;95.60
36216;DHT22;22257;52.232;21.084;2022-07-29T11:25:27;24.90;95.40
36216;DHT22;22257;52.232;21.084;2022-07-29T11:28:08;24.40;95.70
36216;DHT22;22257;52.232;21.084;2022-07-29T11:33:26;24.70;96.60
36216;DHT22;22257;52.232;21.084;2022-07-29T11:35:39;24.80;95.60
36216;DHT22;22257;52.232;21.084;2022-07-29T11:38:25;24.90;95.30
36216;DHT22;22257;52.232;21.084;2022-07-29T11:41:26;24.70;94.90
36216;DHT22;22257;52.232;21.084;2022-07-29T11:43:57;24.70;93.90
36216;DHT22;22257;52.232;21.084;2022-07-29T11:49:22;25.00;94.90
36216;DHT22;22257;52.232;21.084;2022-07-29T11:51:53;25.00;95.00
36216;DHT22;22257;52.232;21.084;2022-07-29T11:54:27;25.30;94.00
36216;DHT22;22257;52.232;21.084;2022-07-29T11:56:53;25.20;93.70
36216;DHT22;22257;52.232;21.084;2022-07-29T11:59:20;25.50;93.30
36216;DHT22;22257;52.232;21.084;2022-07-29T12:01:55;26.00;92.70
36216;DHT22;22257;52.232;21.084;2022-07-29T12:04:21;26.00;92.60
36216;DHT22;22257;52.232;21.084;2022-07-29T12:06:53;26.10;92.10
36216;DHT22;22257;52.232;21.084;2022-07-29T12:09:21;26.30;92.70
36216;DHT22;22257;52.232;21.084;2022-07-29T12:11:47;26.20;91.30
36216;DHT22;22257;52.232;21.084;2022-07-29T12:14:28;25.90;91.30
36216;DHT22;22257;52.232;21.084;2022-07-29T12:16:55;26.00;91.40
36216;DHT22;22257;52.232;21.084;2022-07-29T12:19:22;25.90;90.80
36216;DHT22;22257;52.232;21.084;2022-07-29T12:21:51;25.80;91.10
36216;DHT22;22257;52.232;21.084;2022-07-29T12:24:18;25.50;91.70
36216;DHT22;22257;52.232;21.084;2022-07-29T12:26:59;26.00;91.60
36216;DHT22;22257;52.232;21.084;2022-07-29T12:29:26;26.20;90.80
36216;DHT22;22257;52.232;21.084;2022-07-29T12:31:55;26.70;90.10
36216;DHT22;22257;52.232;21.084;2022-07-29T12:34:23;27.00;88.70
36216;DHT22;22257;52.232;21.084;2022-07-29T12:36:51;27.00;88.20
36216;DHT22;22257;52.232;21.084;2022-07-29T12:39:18;27.00;86.10
36216;DHT22;22257;52.232;21.084;2022-07-29T12:41:44;26.70;87.40
36216;DHT22;22257;52.232;21.084;2022-07-29T12:44:10;26.10;86.90
36216;DHT22;22257;52.232;21.084;2022-07-29T12:46:37;25.70;88.50
36216;DHT22;22257;52.232;21.084;2022-07-29T12:49:04;25.70;88.50
36216;DHT22;22257;52.232;21.084;2022-07-29T12:51:33;25.80;89.80
36216;DHT22;22257;52.232;21.084;2022-07-29T12:54:12;25.60;89.10
36216;DHT22;22257;52.232;21.084;2022-07-29T12:56:42;25.20;90.00
36216;DHT22;22257;52.232;21.084;2022-07-29T12:59:22;25.20;90.60
36216;DHT22;22257;52.232;21.084;2022-07-29T13:01:51;25.30;90.70
36216;DHT22;22257;52.232;21.084;2022-07-29T13:04:29;25.60;90.40
36216;DHT22;22257;52.232;21.084;2022-07-29T13:07:03;25.80;88.90
36216;DHT22;22257;52.232;21.084;2022-07-29T13:09:42;25.80;89.20
36216;DHT22;22257;52.232;21.084;2022-07-29T13:12:10;25.90;88.50
36216;DHT22;22257;52.232;21.084;2022-07-29T13:14:39;26.00;88.60
36216;DHT22;22257;52.232;21.084;2022-07-29T13:17:09;25.80;87.90
36216;DHT22;22257;52.232;21.084;2022-07-29T13:19:41;25.60;89.10
36216;DHT22;22257;52.232;21.084;2022-07-29T13:22:10;25.50;89.10
36216;DHT22;22257;52.232;21.084;2022-07-29T13:24:53;25.80;88.80
36216;DHT22;22257;52.232;21.084;2022-07-29T13:27:17;26.10;87.20
36216;DHT22;22257;52.232;21.084;2022-07-29T13:29:43;26.50;85.60
36216;DHT22;22257;52.232;21.084;2022-07-29T13:32:11;26.50;84.20
36216;DHT22;22257;52.232;21.084;2022-07-29T13:34:37;26.50;85.00
36216;DHT22;22257;52.232;21.084;2022-07-29T13:37:04;26.30;84.50
36216;DHT22;22257;52.232;21.084;2022-07-29T13:39:30;25.60;85.30
36216;DHT22;22257;52.232;21.084;2022-07-29T13:41:56;25.60;86.10
36216;DHT22;22257;52.232;21.084;2022-07-29T13:44:22;25.90;86.20
36216;DHT22;22257;52.232;21.084;2022-07-29T13:46:48;26.30;85.80
36216;DHT22;22257;52.232;21.084;2022-07-29T13:49:14;26.70;83.80
36216;DHT22;22257;52.232;21.084;2022-07-29T13:51:40;26.30;83.40
36216;DHT22;22257;52.232;21.084;2022-07-29T13:54:07;26.00;84.00
36216;DHT22;22257;52.232;21.084;2022-07-29T13:56:33;25.80;84.20
36216;DHT22;22257;52.232;21.084;2022-07-29T13:59:00;26.00;83.50
36216;DHT22;22257;52.232;21.084;2022-07-29T14:01:26;25.80;82.60
36216;DHT22;22257;52.232;21.084;2022-07-29T14:03:53;26.30;82.10
36216;DHT22;22257;52.232;21.084;2022-07-29T14:06:19;26.40;81.10
36216;DHT22;22257;52.232;21.084;2022-07-29T14:08:45;26.60;80.10
36216;DHT22;22257;52.232;21.084;2022-07-29T14:11:11;26.90;78.10
36216;DHT22;22257;52.232;21.084;2022-07-29T14:13:37;27.40;78.20
36216;DHT22;22257;52.232;21.084;2022-07-29T14:16:04;27.90;75.90
36216;DHT22;22257;52.232;21.084;2022-07-29T14:18:30;27.60;74.90
36216;DHT22;22257;52.232;21.084;2022-07-29T14:20:57;27.00;75.80
36216;DHT22;22257;52.232;21.084;2022-07-29T14:23:23;26.40;76.80
36216;DHT22;22257;52.232;21.084;2022-07-29T14:25:49;26.10;77.30
36216;DHT22;22257;52.232;21.084;2022-07-29T14:28:15;26.30;77.80
36216;DHT22;22257;52.232;21.084;2022-07-29T14:30:41;26.70;76.70
36216;DHT22;22257;52.232;21.084;2022-07-29T14:33:09;26.90;75.90
36216;DHT22;22257;52.232;21.084;2022-07-29T14:35:35;27.10;75.40
36216;DHT22;22257;52.232;21.084;2022-07-29T14:38:01;26.80;75.00
36216;DHT22;22257;52.232;21.084;2022-07-29T14:40:27;26.50;75.50
36216;DHT22;22257;52.232;21.084;2022-07-29T14:42:53;26.50;76.30
36216;DHT22;22257;52.232;21.084;2022-07-29T14:45:19;26.40;76.70
36216;DHT22;22257;52.232;21.084;2022-07-29T14:47:45;26.30;76.00
36216;DHT22;22257;52.232;21.084;2022-07-29T14:50:11;26.30;76.50
36216;DHT22;22257;52.232;21.084;2022-07-29T14:52:37;26.80;76.50
36216;DHT22;22257;52.232;21.084;2022-07-29T14:55:05;27.00;74.70
36216;DHT22;22257;52.232;21.084;2022-07-29T14:57:31;26.90;74.40
36216;DHT22;22257;52.232;21.084;2022-07-29T14:59:57;27.00;74.50
36216;DHT22;22257;52.232;21.084;2022-07-29T15:02:23;27.20;74.50
36216;DHT22;22257;52.232;21.084;2022-07-29T15:04:49;27.50;74.00
36216;DHT22;22257;52.232;21.084;2022-07-29T15:07:16;28.30;71.80
36216;DHT22;22257;52.232;21.084;2022-07-29T15:09:42;27.70;70.90
36216;DHT22;22257;52.232;21.084;2022-07-29T15:12:11;27.50;71.40
36216;DHT22;22257;52.232;21.084;2022-07-29T15:14:37;27.40;71.70
36216;DHT22;22257;52.232;21.084;2022-07-29T15:17:03;27.80;72.50
36216;DHT22;22257;52.232;21.084;2022-07-29T15:19:30;28.40;68.90
36216;DHT22;22257;52.232;21.084;2022-07-29T15:21:56;28.20;69.30
36216;DHT22;22257;52.232;21.084;2022-07-29T15:24:22;27.80;69.20
36216;DHT22;22257;52.232;21.084;2022-07-29T15:26:48;27.60;69.80
36216;DHT22;22257;52.232;21.084;2022-07-29T15:29:14;27.60;69.80
36216;DHT22;22257;52.232;21.084;2022-07-29T15:31:41;27.70;69.50
36216;DHT22;22257;52.232;21.084;2022-07-29T15:34:07;27.90;68.60
36216;DHT22;22257;52.232;21.084;2022-07-29T15:36:33;27.90;69.00
36216;DHT22;22257;52.232;21.084;2022-07-29T15:39:00;28.60;67.20
36216;DHT22;22257;52.232;21.084;2022-07-29T15:41:28;28.40;67.10
36216;DHT22;22257;52.232;21.084;2022-07-29T15:43:54;28.80;67.40
36216;DHT22;22257;52.232;21.084;2022-07-29T15:46:20;29.40;64.50
36216;DHT22;22257;52.232;21.084;2022-07-29T15:49:06;28.70;64.90
36216;DHT22;22257;52.232;21.084;2022-07-29T15:51:33;29.80;65.10
36216;DHT22;22257;52.232;21.084;2022-07-29T15:54:01;29.00;64.30
36216;DHT22;22257;52.232;21.084;2022-07-29T15:56:28;28.40;64.80
36216;DHT22;22257;52.232;21.084;2022-07-29T15:58:54;28.00;65.70
36216;DHT22;22257;52.232;21.084;2022-07-29T16:01:21;27.90;66.40
36216;DHT22;22257;52.232;21.084;2022-07-29T16:03:47;27.60;65.70
36216;DHT22;22257;52.232;21.084;2022-07-29T16:06:13;27.40;66.50
36216;DHT22;22257;52.232;21.084;2022-07-29T16:08:39;27.00;67.20